createdAt,value
2023-02-22T00:01:28.324Z,13.83
2023-02-22T00:03:56.158Z,14.00
2023-02-22T00:06:25.744Z,15.60
2023-02-22T00:08:55.698Z,17.60
2023-02-22T00:11:23.545Z,16.07
2023-02-22T00:13:51.618Z,16.37
2023-02-22T00:16:20.482Z,16.47
2023-02-22T00:18:48.436Z,17.53
2023-02-22T00:21:24.232Z,17.80
2023-02-22T00:23:54.721Z,16.73
2023-02-22T00:26:24.594Z,17.63
2023-02-22T00:28:53.627Z,17.43
2023-02-22T00:31:21.537Z,16.63
2023-02-22T00:33:49.741Z,17.70
2023-02-22T00:36:17.751Z,17.00
2023-02-22T00:38:46.397Z,17.10
2023-02-22T00:41:14.724Z,17.00
2023-02-22T00:43:44.963Z,17.30
2023-02-22T00:46:14.505Z,16.07
2023-02-22T00:48:43.190Z,15.43
2023-02-22T00:51:11.215Z,16.53
2023-02-22T00:53:39.718Z,16.23
2023-02-22T00:56:08.237Z,16.17
2023-02-22T00:58:36.412Z,16.57
2023-02-22T01:01:05.879Z,16.40
2023-02-22T01:03:35.630Z,16.23
2023-02-22T01:06:03.592Z,16.00
2023-02-22T01:08:32.650Z,14.90
2023-02-22T01:11:00.639Z,15.30
2023-02-22T01:13:28.591Z,15.10
2023-02-22T01:15:56.917Z,15.20
2023-02-22T01:18:27.265Z,15.30
2023-02-22T01:20:55.074Z,15.13
2023-02-22T01:23:23.305Z,14.90
2023-02-22T01:25:51.291Z,14.20
2023-02-22T01:28:19.308Z,14.17
2023-02-22T01:30:47.618Z,15.00
2023-02-22T01:33:15.990Z,13.33
2023-02-22T01:35:46.634Z,14.03
2023-02-22T01:38:15.138Z,14.10
2023-02-22T01:40:44.486Z,13.03
2023-02-22T01:43:18.084Z,12.73
2023-02-22T01:46:00.063Z,12.80
2023-02-22T01:48:40.319Z,12.30
2023-02-22T01:51:12.909Z,12.80
2023-02-22T01:53:45.132Z,12.03
2023-02-22T01:56:13.563Z,11.43
2023-02-22T01:58:42.976Z,11.57
2023-02-22T02:01:11.122Z,12.37
2023-02-22T02:03:39.699Z,11.50
2023-02-22T02:06:12.261Z,11.97
2023-02-22T02:08:51.683Z,11.20
2023-02-22T02:11:21.674Z,11.67
2023-02-22T02:13:51.161Z,11.30
2023-02-22T02:16:19.189Z,11.07
2023-02-22T02:18:47.544Z,10.60
2023-02-22T02:21:41.797Z,11.10
2023-02-22T02:24:50.425Z,9.70
2023-02-22T02:27:20.006Z,10.60
2023-02-22T02:30:33.628Z,11.63
2023-02-22T02:33:04.616Z,10.43
2023-02-22T02:35:52.060Z,10.50
2023-02-22T02:38:26.220Z,10.73
2023-02-22T02:40:59.236Z,10.80
2023-02-22T02:43:30.819Z,10.47
2023-02-22T02:46:02.740Z,9.87
2023-02-22T02:48:32.854Z,10.50
2023-02-22T02:51:02.441Z,10.50
2023-02-22T02:53:34.343Z,10.57
2023-02-22T02:56:02.309Z,10.23
2023-02-22T02:58:30.403Z,10.70
2023-02-22T03:00:59.564Z,10.53
2023-02-22T03:03:47.691Z,10.70
2023-02-22T03:06:30.480Z,10.17
2023-02-22T03:09:00.617Z,9.23
2023-02-22T03:11:29.734Z,9.30
2023-02-22T03:14:02.827Z,9.53
2023-02-22T03:16:34.106Z,10.13
2023-02-22T03:19:07.395Z,10.10
2023-02-22T03:21:37.935Z,10.00
2023-02-22T03:24:08.470Z,9.33
2023-02-22T03:26:41.006Z,9.63
2023-02-22T03:29:09.509Z,10.00
2023-02-22T03:31:39.626Z,9.83
2023-02-22T03:34:10.755Z,9.70
2023-02-22T03:36:40.426Z,9.90
2023-02-22T03:39:10.643Z,10.67
2023-02-22T03:41:39.767Z,9.67
2023-02-22T03:44:09.399Z,8.97
2023-02-22T03:46:37.703Z,9.10
2023-02-22T03:49:09.882Z,10.20
2023-02-22T03:51:37.643Z,8.77
2023-02-22T03:54:06.199Z,9.83
2023-02-22T03:56:36.568Z,8.90
2023-02-22T03:59:05.399Z,8.53
2023-02-22T04:01:33.144Z,9.03
2023-02-22T04:04:01.309Z,8.43
2023-02-22T04:06:30.981Z,10.37
2023-02-22T04:08:58.920Z,9.70
2023-02-22T04:11:27.186Z,9.07
2023-02-22T04:13:55.831Z,8.60
2023-02-22T04:16:24.230Z,9.00
2023-02-22T04:18:52.331Z,8.50
2023-02-22T04:21:20.957Z,9.63
2023-02-22T04:23:50.319Z,9.03
2023-02-22T04:26:18.840Z,9.90
2023-02-22T04:28:56.401Z,9.37
2023-02-22T04:31:24.966Z,8.90
2023-02-22T04:33:52.959Z,8.60
2023-02-22T04:36:21.746Z,8.60
2023-02-22T04:38:51.441Z,9.10
2023-02-22T04:41:19.551Z,8.70
2023-02-22T04:43:47.959Z,8.13
2023-02-22T04:46:15.776Z,8.60
2023-02-22T04:48:43.659Z,8.00
2023-02-22T04:51:11.602Z,8.23
2023-02-22T04:53:39.575Z,9.00
2023-02-22T04:56:09.156Z,9.10
2023-02-22T04:58:37.590Z,8.83
2023-02-22T05:01:05.629Z,8.77
2023-02-22T05:03:33.443Z,8.07
2023-02-22T05:06:01.534Z,8.03
2023-02-22T05:08:29.700Z,8.30
2023-02-22T05:10:57.713Z,8.03
2023-02-22T05:13:27.512Z,7.43
2023-02-22T05:15:55.540Z,7.70
2023-02-22T05:18:23.986Z,7.90
2023-02-22T05:20:51.943Z,8.13
2023-02-22T05:23:20.425Z,8.07
2023-02-22T05:25:48.432Z,8.60
2023-02-22T05:28:17.179Z,8.17
2023-02-22T05:30:46.592Z,7.43
2023-02-22T05:33:14.883Z,7.57
2023-02-22T05:35:42.770Z,7.40
2023-02-22T05:38:11.655Z,8.00
2023-02-22T05:40:39.714Z,7.33
2023-02-22T05:43:07.708Z,7.17
2023-02-22T05:45:36.220Z,7.87
2023-02-22T05:48:06.118Z,7.90
2023-02-22T05:50:34.587Z,6.80
2023-02-22T05:53:02.629Z,7.97
2023-02-22T05:55:31.026Z,7.57
2023-02-22T05:57:59.118Z,7.87
2023-02-22T06:00:29.086Z,7.17
2023-02-22T06:02:57.895Z,7.60
2023-02-22T06:05:27.656Z,7.43
2023-02-22T06:07:55.808Z,7.20
2023-02-22T06:10:23.971Z,7.63
2023-02-22T06:12:52.258Z,7.87
2023-02-22T06:15:20.627Z,6.73
2023-02-22T06:17:48.493Z,7.47
2023-02-22T06:20:17.266Z,7.40
2023-02-22T06:22:48.224Z,7.03
2023-02-22T06:25:16.596Z,7.40
2023-02-22T06:27:44.957Z,7.47
2023-02-22T06:30:13.609Z,7.60
2023-02-22T06:32:41.640Z,7.80
2023-02-22T06:35:09.589Z,7.40
2023-02-22T06:37:38.649Z,7.40
2023-02-22T06:40:08.277Z,7.30
2023-02-22T06:42:36.888Z,7.47
2023-02-22T06:45:05.250Z,6.63
2023-02-22T06:47:39.269Z,6.63
2023-02-22T06:50:07.854Z,6.50
2023-02-22T06:52:36.275Z,6.50
2023-02-22T06:55:04.230Z,6.77
2023-02-22T06:57:33.839Z,7.30
2023-02-22T07:00:01.836Z,6.90
2023-02-22T07:02:29.759Z,6.73
2023-02-22T07:04:58.178Z,6.87
2023-02-22T07:07:26.426Z,7.13
2023-02-22T07:09:54.686Z,6.97
2023-02-22T07:12:22.666Z,6.90
2023-02-22T07:14:52.554Z,6.17
2023-02-22T07:17:20.538Z,6.97
2023-02-22T07:19:48.890Z,6.47
2023-02-22T07:22:17.601Z,6.43
2023-02-22T07:24:45.938Z,6.10
2023-02-22T07:27:13.812Z,6.80
2023-02-22T07:29:44.140Z,7.27
2023-02-22T07:32:13.560Z,6.80
2023-02-22T07:34:43.493Z,6.50
2023-02-22T07:37:11.831Z,6.37
2023-02-22T07:39:55.881Z,7.13
2023-02-22T07:42:23.802Z,6.40
2023-02-22T07:44:51.681Z,6.37
2023-02-22T07:47:21.467Z,6.57
2023-02-22T07:49:49.291Z,6.13
2023-02-22T07:52:18.103Z,6.80
2023-02-22T07:54:47.817Z,6.40
2023-02-22T07:57:17.315Z,5.60
2023-02-22T07:59:53.972Z,6.63
2023-02-22T08:02:23.878Z,6.90
2023-02-22T08:04:51.892Z,6.73
2023-02-22T08:07:20.258Z,7.20
2023-02-22T08:09:48.207Z,6.20
2023-02-22T08:12:16.980Z,5.97
2023-02-22T08:14:44.992Z,6.53
2023-02-22T08:17:13.318Z,6.33
2023-02-22T08:19:42.821Z,6.63
2023-02-22T08:22:11.470Z,6.87
2023-02-22T08:24:40.667Z,6.97
2023-02-22T08:27:09.298Z,6.27
2023-02-22T08:29:37.140Z,6.30
2023-02-22T08:32:06.035Z,5.93
2023-02-22T08:34:33.853Z,6.90
2023-02-22T08:37:03.340Z,6.63
2023-02-22T08:39:31.307Z,6.13
2023-02-22T08:41:59.222Z,6.63
2023-02-22T08:44:27.708Z,6.53
2023-02-22T08:46:56.246Z,6.67
2023-02-22T08:49:24.580Z,6.60
2023-02-22T08:51:52.370Z,6.47
2023-02-22T08:54:22.869Z,7.00
2023-02-22T08:56:51.013Z,6.37
2023-02-22T08:59:19.511Z,6.40
2023-02-22T09:01:47.345Z,6.80
2023-02-22T09:04:15.566Z,7.00
2023-02-22T09:06:44.136Z,6.60
2023-02-22T09:09:12.382Z,7.13
2023-02-22T09:11:41.466Z,6.53
2023-02-22T09:14:09.725Z,6.10
2023-02-22T09:16:39.291Z,7.03
2023-02-22T09:19:07.794Z,6.57
2023-02-22T09:21:35.738Z,6.83
2023-02-22T09:24:08.746Z,6.10
2023-02-22T09:26:39.350Z,6.77
2023-02-22T09:29:11.242Z,7.07
2023-02-22T09:31:39.762Z,7.00
2023-02-22T09:34:14.114Z,7.10
2023-02-22T09:36:42.174Z,7.80
2023-02-22T09:39:11.211Z,7.87
2023-02-22T09:41:41.659Z,7.00
2023-02-22T09:44:17.666Z,7.20
2023-02-22T09:46:46.270Z,8.03
2023-02-22T09:49:20.179Z,7.67
2023-02-22T09:51:50.567Z,8.00
2023-02-22T09:54:22.635Z,7.50
2023-02-22T09:56:51.154Z,7.90
2023-02-22T09:59:23.725Z,7.97
2023-02-22T10:01:55.636Z,8.40
2023-02-22T10:04:24.734Z,8.60
2023-02-22T10:07:06.401Z,8.20
2023-02-22T10:09:37.679Z,8.13
2023-02-22T10:12:09.536Z,8.83
2023-02-22T10:14:52.277Z,7.90
2023-02-22T10:17:27.642Z,7.47
2023-02-22T10:20:13.397Z,8.90
2023-02-22T10:22:46.278Z,8.33
2023-02-22T10:25:15.005Z,9.40
2023-02-22T10:27:44.289Z,8.47
2023-02-22T10:30:25.055Z,8.93
2023-02-22T10:32:58.546Z,8.80
2023-02-22T10:35:27.912Z,9.53
2023-02-22T10:37:57.773Z,9.60
2023-02-22T10:40:32.235Z,10.37
2023-02-22T10:43:03.655Z,10.30
2023-02-22T10:45:33.723Z,10.03
2023-02-22T10:48:03.380Z,9.70
2023-02-22T10:50:31.880Z,10.47
2023-02-22T10:53:00.442Z,9.90
2023-02-22T10:55:28.486Z,9.70
2023-02-22T10:58:02.118Z,11.30
2023-02-22T11:00:32.784Z,11.30
2023-02-22T11:03:01.764Z,12.07
2023-02-22T11:05:31.959Z,11.70
2023-02-22T11:08:17.265Z,11.07
2023-02-22T11:10:45.185Z,12.17
2023-02-22T11:13:20.607Z,11.33
2023-02-22T11:15:50.359Z,11.27
2023-02-22T11:18:24.446Z,10.70
2023-02-22T11:21:00.890Z,11.33
2023-02-22T11:23:29.457Z,11.50
2023-02-22T11:26:07.333Z,11.57
2023-02-22T11:28:35.702Z,11.27
2023-02-22T11:31:23.866Z,10.23
2023-02-22T11:34:05.430Z,11.20
2023-02-22T11:36:46.663Z,10.93
2023-02-22T11:39:27.057Z,11.00
2023-02-22T11:41:57.582Z,9.80
2023-02-22T11:44:29.007Z,10.37
2023-02-22T11:47:01.447Z,10.20
2023-02-22T11:49:34.490Z,10.90
2023-02-22T11:52:27.158Z,9.80
2023-02-22T11:55:03.081Z,10.23
2023-02-22T11:57:41.163Z,10.40
2023-02-22T12:00:17.707Z,11.80
2023-02-22T12:03:06.755Z,11.13
2023-02-22T12:06:07.624Z,10.77
2023-02-22T12:08:53.442Z,10.53
2023-02-22T12:11:24.802Z,10.37
2023-02-22T12:14:00.456Z,9.83
2023-02-22T12:16:33.250Z,10.50
2023-02-22T12:19:12.429Z,9.53
2023-02-22T12:21:42.222Z,10.00
2023-02-22T12:24:14.302Z,11.43
2023-02-22T12:26:43.717Z,9.30
2023-02-22T12:29:14.436Z,9.37
2023-02-22T12:31:45.414Z,9.60
2023-02-22T12:34:19.977Z,9.53
2023-02-22T12:36:50.292Z,10.17
2023-02-22T12:39:26.743Z,9.37
2023-02-22T12:41:56.625Z,9.10
2023-02-22T12:44:26.771Z,9.73
2023-02-22T12:46:57.112Z,9.27
2023-02-22T12:49:29.485Z,9.40
2023-02-22T12:52:03.075Z,8.20
2023-02-22T12:54:39.961Z,8.70
2023-02-22T12:57:11.824Z,8.77
2023-02-22T12:59:42.276Z,9.10
2023-02-22T13:02:15.068Z,9.43
2023-02-22T13:04:44.549Z,9.00
2023-02-22T13:07:28.454Z,8.90
2023-02-22T13:10:23.347Z,8.60
2023-02-22T13:12:54.689Z,8.60
2023-02-22T13:15:24.742Z,8.60
2023-02-22T13:18:01.534Z,8.07
2023-02-22T13:20:33.688Z,8.20
2023-02-22T13:23:10.646Z,7.83
2023-02-22T13:25:44.384Z,7.97
2023-02-22T13:28:21.940Z,7.60
2023-02-22T13:30:58.512Z,7.87
2023-02-22T13:33:33.796Z,7.73
2023-02-22T13:36:15.933Z,7.70
2023-02-22T13:39:00.032Z,7.40
2023-02-22T13:41:52.076Z,7.07
2023-02-22T13:45:04.904Z,7.17
2023-02-22T13:47:55.221Z,7.70
2023-02-22T13:50:44.962Z,7.03
2023-02-22T13:53:16.306Z,6.90
2023-02-22T13:55:47.171Z,6.90
2023-02-22T13:58:15.523Z,6.90
2023-02-22T14:00:46.458Z,6.90
2023-02-22T14:03:37.573Z,6.60
2023-02-22T14:06:06.724Z,7.00
2023-02-22T14:08:45.763Z,6.70
2023-02-22T14:11:46.844Z,6.97
2023-02-22T14:14:21.312Z,6.90
2023-02-22T14:17:32.424Z,6.77
2023-02-22T14:20:19.797Z,7.20
2023-02-22T14:22:48.756Z,7.73
2023-02-22T14:25:36.333Z,6.33
2023-02-22T14:28:05.115Z,6.90
2023-02-22T14:30:33.947Z,6.70
2023-02-22T14:33:02.800Z,6.87
2023-02-22T14:35:47.868Z,6.40
2023-02-22T14:38:19.513Z,7.17
2023-02-22T14:40:51.696Z,6.23
2023-02-22T14:43:21.631Z,6.37
2023-02-22T14:45:54.909Z,6.30
2023-02-22T14:48:29.521Z,6.20
2023-02-22T14:51:02.000Z,6.57
2023-02-22T14:53:38.317Z,6.67
2023-02-22T14:56:12.119Z,6.20
2023-02-22T14:58:46.146Z,6.87
2023-02-22T15:01:44.418Z,6.30
2023-02-22T15:04:19.746Z,6.60
2023-02-22T15:06:50.521Z,6.40
2023-02-22T15:09:27.007Z,6.47
2023-02-22T15:12:13.958Z,6.40
2023-02-22T15:14:50.044Z,5.80
2023-02-22T15:17:24.795Z,5.90
2023-02-22T15:19:58.669Z,6.17
2023-02-22T15:22:31.973Z,6.40
2023-02-22T15:25:05.731Z,6.43
2023-02-22T15:27:37.088Z,6.50
2023-02-22T15:30:07.116Z,6.03
2023-02-22T15:32:36.758Z,5.63
2023-02-22T15:35:17.098Z,5.77
2023-02-22T15:37:45.339Z,5.80
2023-02-22T15:40:17.392Z,5.73
2023-02-22T15:42:48.298Z,5.70
2023-02-22T15:45:18.520Z,6.10
2023-02-22T15:47:46.553Z,5.77
2023-02-22T15:50:21.625Z,5.60
2023-02-22T15:52:53.104Z,5.70
2023-02-22T15:55:21.167Z,5.60
2023-02-22T15:57:50.284Z,5.47
2023-02-22T16:00:24.273Z,5.53
2023-02-22T16:02:52.234Z,5.50
2023-02-22T16:05:20.103Z,5.30
2023-02-22T16:07:50.479Z,5.47
2023-02-22T16:10:27.646Z,4.97
2023-02-22T16:13:08.013Z,5.43
2023-02-22T16:15:36.050Z,4.90
2023-02-22T16:18:24.631Z,4.73
2023-02-22T16:20:59.661Z,5.30
2023-02-22T16:23:27.993Z,4.90
2023-02-22T16:26:06.943Z,5.43
2023-02-22T16:28:36.585Z,4.93
2023-02-22T16:31:04.821Z,5.47
2023-02-22T16:33:34.266Z,5.00
2023-02-22T16:36:06.186Z,5.37
2023-02-22T16:38:38.676Z,5.40
2023-02-22T16:41:07.595Z,5.00
2023-02-22T16:43:37.814Z,5.40
2023-02-22T16:46:07.126Z,5.70
2023-02-22T16:48:38.139Z,5.90
2023-02-22T16:51:15.491Z,5.87
2023-02-22T16:53:44.905Z,5.77
2023-02-22T16:56:13.235Z,5.90
2023-02-22T16:58:42.467Z,5.43
2023-02-22T17:01:12.980Z,5.90
2023-02-22T17:03:40.982Z,5.90
2023-02-22T17:06:10.481Z,5.60
2023-02-22T17:08:38.705Z,6.17
2023-02-22T17:11:06.787Z,5.13
2023-02-22T17:13:35.463Z,5.63
2023-02-22T17:16:05.590Z,5.80
2023-02-22T17:18:34.830Z,5.90
2023-02-22T17:21:03.467Z,6.00
2023-02-22T17:23:31.535Z,6.03
2023-02-22T17:26:02.302Z,5.97
2023-02-22T17:28:30.990Z,5.90
2023-02-22T17:31:01.583Z,6.50
2023-02-22T17:33:33.249Z,6.40
2023-02-22T17:36:05.028Z,6.53
2023-02-22T17:38:34.573Z,6.20
2023-02-22T17:41:03.345Z,5.97
2023-02-22T17:43:31.694Z,6.20
2023-02-22T17:46:00.144Z,7.10
2023-02-22T17:48:28.296Z,6.53
2023-02-22T17:50:57.810Z,6.53
2023-02-22T17:53:25.830Z,6.40
2023-02-22T17:55:53.984Z,7.33
2023-02-22T17:58:23.700Z,6.47
2023-02-22T18:00:51.912Z,6.53
2023-02-22T18:03:21.899Z,6.73
2023-02-22T18:05:51.045Z,6.97
2023-02-22T18:08:20.556Z,7.30
2023-02-22T18:10:53.067Z,7.10
2023-02-22T18:13:20.932Z,7.40
2023-02-22T18:15:49.043Z,7.10
2023-02-22T18:18:17.852Z,7.10
2023-02-22T18:20:46.078Z,6.70
2023-02-22T18:23:16.019Z,7.00
2023-02-22T18:26:03.898Z,7.87
2023-02-22T18:28:37.528Z,6.77
2023-02-22T18:31:08.609Z,7.10
2023-02-22T18:33:36.644Z,6.70
2023-02-22T18:36:04.954Z,7.17
2023-02-22T18:38:33.221Z,7.50
2023-02-22T18:41:03.112Z,8.10
2023-02-22T18:43:31.885Z,7.30
2023-02-22T18:46:06.844Z,7.10
2023-02-22T18:48:35.238Z,7.40
2023-02-22T18:51:03.368Z,7.93
2023-02-22T18:53:31.484Z,7.53
2023-02-22T18:56:05.631Z,6.90
2023-02-22T18:58:33.932Z,7.27
2023-02-22T19:01:01.958Z,7.20
2023-02-22T19:03:30.120Z,6.80
2023-02-22T19:06:02.200Z,7.63
2023-02-22T19:08:32.519Z,7.40
2023-02-22T19:11:06.945Z,7.50
2023-02-22T19:13:36.403Z,7.70
2023-02-22T19:16:04.842Z,6.80
2023-02-22T19:18:32.832Z,7.60
2023-02-22T19:21:01.072Z,7.80
2023-02-22T19:23:34.247Z,8.40
2023-02-22T19:26:04.648Z,8.00
2023-02-22T19:28:34.778Z,7.97
2023-02-22T19:31:15.140Z,7.00
2023-02-22T19:33:43.078Z,7.93
2023-02-22T19:36:11.523Z,8.07
2023-02-22T19:38:39.778Z,8.40
2023-02-22T19:41:10.635Z,8.10
2023-02-22T19:43:38.657Z,7.93
2023-02-22T19:46:07.617Z,8.20
2023-02-22T19:48:35.694Z,7.50
2023-02-22T19:51:06.202Z,8.60
2023-02-22T19:53:34.329Z,8.43
2023-02-22T19:56:06.145Z,7.47
2023-02-22T19:58:36.775Z,8.20
2023-02-22T20:01:12.729Z,7.60
2023-02-22T20:03:41.905Z,8.50
2023-02-22T20:06:10.392Z,8.90
2023-02-22T20:08:42.172Z,8.93
2023-02-22T20:11:10.700Z,7.90
2023-02-22T20:13:41.560Z,8.70
2023-02-22T20:16:10.925Z,8.70
2023-02-22T20:18:38.900Z,8.40
2023-02-22T20:21:10.170Z,7.37
2023-02-22T20:23:40.158Z,8.60
2023-02-22T20:26:10.416Z,7.90
2023-02-22T20:28:40.065Z,8.40
2023-02-22T20:31:11.250Z,8.43
2023-02-22T20:33:41.740Z,8.20
2023-02-22T20:36:10.895Z,8.20
2023-02-22T20:38:39.400Z,9.10
2023-02-22T20:41:08.064Z,8.43
2023-02-22T20:43:36.341Z,9.07
2023-02-22T20:46:06.421Z,8.57
2023-02-22T20:48:34.882Z,8.30
2023-02-22T20:51:06.505Z,9.50
2023-02-22T20:53:35.767Z,9.10
2023-02-22T20:56:04.253Z,9.00
2023-02-22T20:58:32.427Z,9.30
2023-02-22T21:01:06.251Z,8.43
2023-02-22T21:03:34.399Z,8.47
2023-02-22T21:06:02.488Z,8.90
2023-02-22T21:08:31.249Z,8.87
2023-02-22T21:10:59.386Z,9.13
2023-02-22T21:13:27.502Z,8.40
2023-02-22T21:15:55.896Z,8.40
2023-02-22T21:18:25.310Z,8.70
2023-02-22T21:20:54.228Z,9.53
2023-02-22T21:23:22.130Z,9.47
2023-02-22T21:25:53.557Z,8.80
2023-02-22T21:28:22.308Z,8.43
2023-02-22T21:30:51.454Z,8.67
2023-02-22T21:33:19.450Z,8.50
2023-02-22T21:35:51.282Z,9.07
2023-02-22T21:38:21.007Z,8.40
2023-02-22T21:40:49.334Z,8.83
2023-02-22T21:43:17.371Z,9.30
2023-02-22T21:45:45.233Z,9.47
2023-02-22T21:48:13.547Z,8.03
2023-02-22T21:50:41.455Z,8.60
2023-02-22T21:53:10.561Z,8.90
2023-02-22T21:55:38.480Z,8.30
2023-02-22T21:58:07.288Z,10.00
2023-02-22T22:00:38.333Z,9.17
2023-02-22T22:03:08.963Z,9.13
2023-02-22T22:05:40.320Z,8.07
2023-02-22T22:08:08.493Z,8.70
2023-02-22T22:10:37.987Z,9.10
2023-02-22T22:13:09.384Z,8.23
2023-02-22T22:15:37.419Z,8.93
2023-02-22T22:18:07.709Z,9.67
2023-02-22T22:20:37.957Z,8.90
2023-02-22T22:23:06.632Z,8.83
2023-02-22T22:25:38.101Z,8.97
2023-02-22T22:28:08.678Z,8.60
2023-02-22T22:30:37.164Z,9.50
2023-02-22T22:33:08.741Z,9.20
2023-02-22T22:35:36.684Z,9.13
2023-02-22T22:38:04.898Z,8.70
2023-02-22T22:40:34.402Z,9.33
2023-02-22T22:43:02.424Z,8.73
2023-02-22T22:45:33.178Z,8.63
2023-02-22T22:48:02.180Z,9.03
2023-02-22T22:50:30.383Z,8.97
2023-02-22T22:52:58.338Z,9.00
2023-02-22T22:55:26.442Z,8.90
2023-02-22T22:57:54.400Z,9.20
2023-02-22T23:00:30.829Z,8.83
2023-02-22T23:03:00.222Z,8.73
2023-02-22T23:05:28.880Z,9.40
2023-02-22T23:07:57.196Z,9.17
2023-02-22T23:10:28.006Z,8.63
2023-02-22T23:12:56.531Z,9.10
2023-02-22T23:15:24.692Z,9.90
2023-02-22T23:17:56.183Z,9.10
2023-02-22T23:20:31.343Z,9.97
2023-02-22T23:22:59.223Z,11.03
2023-02-22T23:25:27.047Z,10.87
2023-02-22T23:27:55.605Z,10.70
2023-02-22T23:30:27.537Z,11.10
2023-02-22T23:32:58.909Z,11.40
2023-02-22T23:35:28.862Z,10.10
2023-02-22T23:37:59.041Z,10.87
2023-02-22T23:40:27.215Z,10.27
2023-02-22T23:42:56.622Z,10.20
2023-02-22T23:45:24.782Z,10.80
2023-02-22T23:47:54.953Z,9.80
2023-02-22T23:50:24.642Z,10.53
2023-02-22T23:52:59.110Z,10.17
2023-02-22T23:55:27.449Z,10.20
2023-02-22T23:57:59.334Z,9.53
